Latest Weather Observations for Jandakot

IDW60901

Issued at 1:35 pm WST Friday 28 November 2014 (issued every 10 minutes, with the page automatically refreshed every 10 minutes)

About weather observations | Map of Perth area stations | Latest observations for Perth area | Other Formats
Station Details ID: 009172 Name: JANDAKOT AERO Lat: -32.10 Lon: 115.88 Height: 30.0 m
Data from the previous 72 hours. | See also: Recent months at Jandakot
Date/Time
WST
Tmp

°C
App
Tmp
°C
Dew
Point
°C
Rel
Hum
%
Delta-T

°C
Wind Press
QNH
hPa
Press
MSL
hPa
Rain
since
9 am
mm
Dir
 
Spd
km/h
Gust
km/h
Spd
kts
Gust
kts
28/01:30pm 23.7 21.4 15.8 61 4.8 WSW 22 32 12 17 1011.4 1011.3 0.0
28/01:00pm 22.4 20.0 16.3 68 3.7 WSW 24 32 13 17 1011.7 1011.6 0.0
28/12:30pm 22.6 20.8 16.0 66 4.0 WSW 20 28 11 15 1011.7 1011.6 0.0
28/12:00pm 22.7 20.6 16.3 67 3.9 SW 22 32 12 17 1011.7 1011.6 0.0
28/11:30am 22.6 19.6 15.8 65 4.1 WSW 26 35 14 19 1011.4 1011.3 0.0
28/11:00am 23.8 21.7 16.3 63 4.6 SW 22 32 12 17 1011.1 1011.0 0.0
28/10:30am 22.8 21.6 17.1 70 3.5 SW 19 28 10 15 1011.0 1010.9 0.0
28/10:00am 22.8 21.5 17.3 71 3.4 SW 20 26 11 14 1010.9 1010.8 0.0
28/09:30am 22.3 21.1 17.1 72 3.2 SSW 19 26 10 14 1010.9 1010.8 0.0
28/09:00am 21.8 20.2 17.4 76 2.7 WSW 22 30 12 16 1010.8 1010.7 0.6
28/08:44am 21.5 20.2 17.3 77 2.6 SW 20 28 11 15 1010.7 1010.6 0.6
28/08:30am 21.6 20.5 17.2 76 2.7 WSW 19 26 10 14 1010.6 1010.5 0.6
28/08:00am 21.7 21.5 17.7 78 2.5 WSW 15 24 8 13 1010.4 1010.3 0.6
28/07:59am 21.7 21.2 17.7 78 2.5 WSW 17 24 9 13 1010.4 1010.3 0.6
28/07:30am 21.6 21.4 16.7 73 3.0 WSW 13 17 7 9 1010.3 1010.2 0.6
28/07:00am 20.3 22.1 16.5 79 2.3 SSW 2 7 1 4 1010.2 1010.1 0.6
28/06:30am 19.1 20.6 16.6 85 1.5 SSE 4 6 2 3 1010.1 1010.0 0.6
28/06:00am 17.6 18.4 16.4 93 0.7 S 7 9 4 5 1010.0 1009.9 0.6
28/05:30am 16.7 17.9 16.0 96 0.4 S 4 9 2 5 1009.7 1009.6 0.6
28/05:00am 16.6 16.9 15.9 96 0.4 SW 9 11 5 6 1009.7 1009.6 0.6
28/04:30am 16.7 17.0 15.9 95 0.5 SSW 9 11 5 6 1009.2 1009.1 0.6
28/04:00am 17.2 17.9 16.2 94 0.6 S 7 9 4 5 1009.1 1009.0 0.6
28/03:30am 17.6 18.0 16.3 92 0.8 S 9 11 5 6 1009.2 1009.1 0.6
28/03:00am 17.7 18.1 16.4 92 0.8 SSW 9 11 5 6 1009.2 1009.1 0.6
28/02:30am 17.7 19.9 16.4 92 0.8 CALM 0 0 0 0 1009.3 1009.2 0.6
28/02:00am 18.0 18.4 16.3 90 1.0 S 9 13 5 7 1009.1 1009.0 0.6
28/01:30am 18.2 19.1 16.7 91 0.9 ESE 7 9 4 5 1009.2 1009.1 0.6
28/01:00am 18.5 19.6 17.2 92 0.8 ESE 7 9 4 5 1009.5 1009.4 0.6
28/12:30am 18.6 19.9 17.1 91 0.9 S 6 9 3 5 1009.6 1009.5 0.6
28/12:00am 18.0 19.0 16.8 93 0.7 SSE 7 7 4 4 1009.6 1009.5 0.6
 
Date/Time
WST
Tmp

°C
App
Tmp
°C
Dew
Point
°C
Rel
Hum
%
Delta-T

°C
Wind Press
QNH
hPa
Press
MSL
hPa
Rain
since
9 am
mm
Dir
 
Spd
km/h
Gust
km/h
Spd
kts
Gust
kts
27/11:30pm 18.3 19.0 17.0 92 0.8 ESE 9 11 5 6 1009.6 1009.5 0.6
27/11:00pm 18.6 18.6 17.1 91 0.9 SE 13 15 7 8 1009.8 1009.7 0.6
27/10:30pm 19.1 19.6 17.5 90 1.0 SSE 11 15 6 8 1009.7 1009.6 0.6
27/10:00pm 19.4 20.0 17.6 89 1.1 S 11 13 6 7 1009.6 1009.5 0.6
27/09:30pm 20.0 20.2 17.6 86 1.5 SSW 13 17 7 9 1009.7 1009.6 0.6
27/09:00pm 20.6 21.0 17.3 81 2.0 S 11 15 6 8 1009.6 1009.5 0.6
27/08:30pm 20.7 21.3 17.6 82 1.9 S 11 13 6 7 1009.4 1009.3 0.6
27/08:00pm 20.6 21.0 17.2 81 2.1 ESE 11 11 6 6 1009.0 1008.9 0.6
27/07:30pm 21.3 22.7 17.9 81 2.1 SE 7 9 4 5 1008.9 1008.8 0.6
27/07:00pm 23.3 24.8 17.7 71 3.5 ESE 6 7 3 4 1008.9 1008.8 0.6
27/06:30pm 24.6 25.0 16.3 60 5.1 E 9 13 5 7 1008.8 1008.7 0.6
27/06:00pm 25.2 24.7 16.0 56 5.6 ESE 13 17 7 9 1008.8 1008.7 0.6
27/05:30pm 24.9 23.9 15.7 56 5.6 ESE 15 17 8 9 1009.0 1008.9 0.6
27/05:00pm 25.3 23.1 15.0 53 6.2 SE 20 24 11 13 1008.9 1008.8 0.6
27/04:30pm 24.5 21.9 15.8 58 5.3 SE 24 30 13 16 1009.1 1009.0 0.6
27/04:00pm 24.0 21.6 16.3 62 4.7 SE 24 32 13 17 1009.8 1009.7 0.6
27/03:30pm 23.3 22.7 18.9 76 2.8 S 20 28 11 15 1010.4 1010.3 0.6
27/03:00pm 22.6 22.3 18.3 76 2.7 S 17 22 9 12 1011.0 1010.9 0.6
27/02:30pm 23.3 22.9 18.0 72 3.3 S 17 24 9 13 1011.3 1011.2 0.6
27/02:00pm 24.0 22.8 17.6 67 4.0 SW 20 26 11 14 1011.4 1011.3 0.4
27/01:30pm 24.8 23.6 17.1 62 4.8 S 19 26 10 14 1011.1 1011.0 0.4
27/01:00pm 24.6 23.7 18.1 67 4.1 S 20 28 11 15 1010.8 1010.7 0.4
27/12:30pm 24.5 23.5 18.0 67 4.1 SSE 20 28 11 15 1011.1 1011.0 0.4
27/12:00pm 23.6 24.1 19.2 76 2.8 SSE 15 19 8 10 1011.6 1011.5 0.4
27/11:30am 23.4 23.7 17.8 71 3.5 S 13 19 7 10 1011.7 1011.6 0.4
27/11:00am 23.0 25.1 19.4 80 2.3 S 7 15 4 8 1012.6 1012.5 0.4
27/10:30am 22.4 24.2 18.4 78 2.5 SW 6 9 3 5 1012.9 1012.8 0.2
27/10:00am 22.6 25.2 18.3 76 2.7 WNW 2 7 1 4 1012.8 1012.7 0.2
27/09:30am 22.1 23.5 17.9 77 2.6 SE 7 11 4 6 1012.2 1012.1 0.0
27/09:00am 21.9 23.0 18.0 78 2.4 SSE 9 13 5 7 1012.2 1012.1 7.8
27/08:30am 21.5 22.6 18.0 80 2.2 SE 9 11 5 6 1012.3 1012.2 7.8
27/08:00am 20.6 22.0 18.7 89 1.2 SSE 9 13 5 7 1012.2 1012.1 7.8
27/07:30am 19.3 20.1 18.2 93 0.7 SSW 11 13 6 7 1012.5 1012.4 7.8
27/07:00am 18.9 19.9 17.8 93 0.7 E 9 13 5 7 1012.3 1012.2 7.8
27/06:30am 19.1 20.6 17.6 91 0.9 NNE 6 9 3 5 1012.5 1012.4 7.2
27/06:00am 19.3 20.7 17.3 88 1.2 S 6 7 3 4 1012.2 1012.1 7.2
27/05:30am 19.9 20.2 16.9 83 1.8 SSE 11 17 6 9 1011.2 1011.1 6.6
27/05:00am 20.5 20.6 16.4 77 2.5 S 11 13 6 7 1010.6 1010.5 6.4
27/04:30am 21.1 20.2 15.9 72 3.1 NNE 15 19 8 10 1009.9 1009.8 6.4
27/04:00am 20.3 20.5 15.8 75 2.7 NNE 9 15 5 8 1009.3 1009.2 6.4
27/03:30am 21.0 19.2 15.6 71 3.2 NE 19 24 10 13 1009.0 1008.9 6.4
27/03:00am 21.2 20.5 15.5 70 3.4 ENE 13 19 7 10 1009.1 1009.0 6.4
27/02:30am 21.7 19.6 15.3 67 3.8 NE 20 32 11 17 1009.1 1009.0 6.4
27/02:00am 21.8 19.9 15.1 65 4.0 ENE 19 26 10 14 1009.0 1008.9 6.4
27/01:30am 22.1 20.5 15.0 64 4.2 NE 17 28 9 15 1009.2 1009.1 6.4
27/01:00am 22.0 21.2 15.1 65 4.1 NE 13 19 7 10 1009.0 1008.9 6.4
27/12:30am 22.0 20.4 14.9 64 4.2 ENE 17 22 9 12 1009.2 1009.1 6.4
27/12:00am 21.6 19.4 14.8 65 4.0 E 20 28 11 15 1009.6 1009.5 6.4
 
Date/Time
WST
Tmp

°C
App
Tmp
°C
Dew
Point
°C
Rel
Hum
%
Delta-T

°C
Wind Press
QNH
hPa
Press
MSL
hPa
Rain
since
9 am
mm
Dir
 
Spd
km/h
Gust
km/h
Spd
kts
Gust
kts
26/11:30pm 21.3 18.4 15.1 67 3.7 E 24 35 13 19 1009.9 1009.8 6.4
26/11:00pm 21.1 17.9 15.2 69 3.5 E 26 39 14 21 1010.0 1009.9 6.4
26/10:30pm 21.0 18.3 15.5 71 3.3 E 24 33 13 18 1009.8 1009.7 6.4
26/10:00pm 20.7 18.0 15.7 73 3.0 E 24 39 13 21 1010.0 1009.9 6.4
26/09:30pm 20.0 18.3 16.2 79 2.3 E 20 26 11 14 1010.4 1010.3 6.4
26/09:00pm 20.3 18.5 16.0 76 2.6 E 20 32 11 17 1010.9 1010.8 6.2
26/08:30pm 19.4 18.1 16.8 85 1.6 ESE 19 24 10 13 1010.9 1010.8 6.2
26/08:00pm 20.0 18.5 16.3 79 2.2 NE 19 24 10 13 1012.2 1012.1 6.2
26/07:30pm 19.4 19.5 17.4 88 1.2 E 13 15 7 8 1012.2 1012.1 5.8
26/07:00pm 19.7 18.6 17.2 85 1.5 SE 19 24 10 13 1011.7 1011.6 5.4
26/06:30pm 19.6 19.2 17.1 85 1.5 E 15 22 8 12 1011.4 1011.3 5.2
26/06:00pm 20.3 17.6 16.5 79 2.3 E 26 39 14 21 1010.7 1010.6 4.6
26/05:30pm 20.5 16.4 16.5 78 2.4 ENE 33 43 18 23 1010.0 1009.9 3.4
26/05:00pm 21.6 15.4 15.8 69 3.5 ENE 43 56 23 30 1008.7 1008.6 2.0
26/04:30pm 22.4 18.2 15.8 66 4.0 E 32 41 17 22 1008.8 1008.7 0.8
26/04:00pm 24.6 20.7 14.3 52 6.1 NNE 28 32 15 17 1008.8 1008.7 0.2
26/03:30pm 26.0 21.4 12.3 42 7.9 E 28 39 15 21 1007.1 1007.0 0.2
26/03:00pm 24.5 19.8 14.4 53 6.0 SE 32 44 17 24 1006.6 1006.5 0.2
26/02:56pm 24.9 20.8 13.9 50 6.5 SE 28 39 15 21 1007.1 1007.0 0.2
26/02:30pm 25.6 22.9 13.5 47 7.1 SE 20 32 11 17 1009.1 1009.0 0.2
26/02:00pm 25.3 21.8 14.4 50 6.5 S 26 32 14 17 1008.9 1008.8 0.2
26/01:30pm 26.9 24.9 13.8 44 7.8 WSW 17 22 9 12 1010.1 1010.0 0.2
26/01:11pm 29.0 27.5 13.2 37 9.4 WSW 13 17 7 9 1009.8 1009.7 0.2
26/01:00pm 30.4 28.8 10.2 28 11.5 S 9 13 5 7 1009.6 1009.5 0.2
26/12:52pm 30.6 28.9 9.8 27 11.8 SSE 9 13 5 7 1009.5 1009.4 0.2
26/12:30pm 30.1 26.1 9.2 27 11.7 E 20 28 11 15 1009.5 1009.4 0.2
26/12:00pm 29.7 24.6 9.1 27 11.5 ESE 26 33 14 18 1009.9 1009.8 0.2
26/11:30am 28.5 24.1 10.5 32 10.2 ESE 24 32 13 17 1010.5 1010.4 0.2
26/11:00am 28.2 23.9 10.8 33 9.9 ESE 24 35 13 19 1011.1 1011.0 0.2
26/10:30am 24.8 21.2 10.6 40 7.9 E 20 28 11 15 1011.7 1011.6 0.2
26/10:00am 24.3 21.9 10.2 41 7.8 E 13 26 7 14 1012.1 1012.0 0.2
26/09:30am 25.1 19.6 7.5 32 9.3 ENE 26 33 14 18 1012.5 1012.4 0.0
26/09:00am 24.9 19.9 8.0 34 9.0 ENE 24 32 13 17 1012.8 1012.7 0.0
26/08:30am 24.4 19.3 7.8 34 8.8 ENE 24 32 13 17 1012.9 1012.8 0.0
26/08:00am 23.6 18.6 8.1 37 8.2 E 24 35 13 19 1012.9 1012.8 0.0
26/07:30am 22.5 18.1 7.5 38 7.8 ENE 20 32 11 17 1013.2 1013.1 0.0
26/07:00am 21.8 17.0 7.5 39 7.4 ENE 22 35 12 19 1012.9 1012.8 0.0
26/06:30am 21.0 17.0 8.2 43 6.7 E 19 30 10 16 1012.9 1012.8 0.0
26/06:00am 20.4 15.8 8.3 45 6.3 E 22 33 12 18 1012.8 1012.7 0.0
26/05:30am 19.7 14.4 8.6 48 5.8 E 26 37 14 20 1012.8 1012.7 0.0
26/05:00am 19.7 14.8 8.6 48 5.8 E 24 33 13 18 1012.9 1012.8 0.0
26/04:30am 19.6 13.2 8.7 49 5.7 E 32 43 17 23 1012.9 1012.8 0.0
26/04:00am 19.9 13.3 8.4 47 6.0 E 33 46 18 25 1012.7 1012.6 0.0
26/03:49am 19.9 14.3 8.6 48 5.9 E 28 46 15 25 1012.7 1012.6 0.0
26/03:30am 20.2 13.8 8.6 47 6.1 E 32 44 17 24 1012.7 1012.6 0.0
26/03:00am 20.4 14.7 8.3 45 6.3 E 28 39 15 21 1012.6 1012.5 0.0
26/02:30am 20.6 16.5 8.6 46 6.3 E 20 32 11 17 1012.7 1012.6 0.0
26/02:00am 21.4 13.5 8.0 42 7.0 E 39 52 21 28 1012.2 1012.1 0.0
26/01:32am 21.8 14.7 8.1 41 7.2 E 35 54 19 29 1012.0 1011.9 0.0
26/01:30am 21.9 14.4 7.9 40 7.3 E 37 54 20 29 1012.1 1012.0 0.0
26/01:01am 22.7 15.2 7.8 38 7.8 E 37 56 20 30 1012.0 1011.9 0.0
26/01:00am 22.6 15.5 7.9 39 7.7 E 35 52 19 28 1012.1 1012.0 0.0
26/12:30am 23.5 17.0 8.0 37 8.2 E 32 50 17 27 1012.3 1012.2 0.0
26/12:18am 23.9 18.0 7.5 35 8.6 E 28 46 15 25 1012.2 1012.1 0.0
26/12:00am 24.4 17.0 6.9 32 9.1 E 35 50 19 27 1012.4 1012.3 0.0
 
Date/Time
WST
Tmp

°C
App
Tmp
°C
Dew
Point
°C
Rel
Hum
%
Delta-T

°C
Wind Press
QNH
hPa
Press
MSL
hPa
Rain
since
9 am
mm
Dir
 
Spd
km/h
Gust
km/h
Spd
kts
Gust
kts
25/11:30pm 25.2 17.4 5.1 27 10.2 E 35 54 19 29 1012.5 1012.4 0.0
25/11:28pm 25.3 17.5 4.9 27 10.3 E 35 54 19 29 1012.4 1012.3 0.0
25/11:00pm 26.1 18.4 2.1 21 11.6 E 32 43 17 23 1012.6 1012.5 0.0
25/10:46pm 26.1 19.0 1.3 20 11.8 ESE 28 46 15 25 1012.8 1012.7 0.0
25/10:30pm 26.2 19.1 1.1 19 11.9 E 28 39 15 21 1013.0 1012.9 0.0
25/10:00pm 25.8 19.9 1.8 21 11.5 ESE 22 32 12 17 1013.1 1013.0 0.0
25/09:30pm 24.4 20.2 3.6 26 10.2 SE 15 20 8 11 1013.3 1013.2 0.0
25/09:00pm 22.3 18.9 5.8 34 8.3 SSE 13 17 7 9 1013.2 1013.1 0.0
25/08:30pm 23.9 20.8 5.5 30 9.3 SSE 11 13 6 7 1013.3 1013.2 0.0
25/08:00pm 25.5 22.0 5.3 27 10.3 SE 13 15 7 8 1013.2 1013.1 0.0
25/07:30pm 27.7 23.9 3.9 21 12.0 SE 13 17 7 9 1012.8 1012.7 0.0
25/07:00pm 29.4 25.5 3.2 18 13.2 SE 13 17 7 9 1012.6 1012.5 0.0
25/06:30pm 31.4 26.0 1.1 14 14.9 SE 19 24 10 13 1012.6 1012.5 0.0
25/06:00pm 32.6 26.9 0.3 12 15.8 SE 20 30 11 16 1012.6 1012.5 0.0
25/05:30pm 33.0 26.5 0.0 12 16.1 SE 24 33 13 18 1012.5 1012.4 0.0
25/05:00pm 33.4 28.2 0.2 12 16.3 SSE 17 28 9 15 1012.8 1012.7 0.0
25/04:30pm 33.8 29.2 1.3 12 16.3 SE 15 24 8 13 1013.0 1012.9 0.0
25/04:00pm 33.6 28.6 1.6 13 16.1 ESE 17 24 9 13 1013.3 1013.2 0.0
25/03:30pm 33.9 28.0 1.9 13 16.2 E 22 30 12 16 1013.6 1013.5 0.0
25/03:00pm 33.4 30.4 4.2 16 15.3 ESE 9 15 5 8 1013.9 1013.8 0.0
25/02:30pm 33.5 28.4 3.3 15 15.6 SE 19 28 10 15 1014.2 1014.1 0.0
25/02:00pm 32.9 28.1 4.5 17 14.9 E 19 26 10 14 1014.6 1014.5 0.0

Latest Capital City Observations: Canberra | Sydney | Melbourne | Brisbane | Adelaide | Perth | Hobart | Darwin

Other Formats:

Comma delimited format used in spreadsheet applications
http://www.bom.gov.au/fwo/IDW60901/IDW60901.94609.axf

JavaScript Object Notation format (JSON) in row-major order
http://www.bom.gov.au/fwo/IDW60901/IDW60901.94609.json